Time;durP1;ratioP1;P1;durP2;ratioP2;P2;SDS_P1;SDS_P2;PMS_P1;PMS_P2;Temp;Humidity;BMP_temperature;BMP_pressure;BME280_temperature;BME280_humidity;BME280_pressure;Samples;Min_cycle;Max_cycle;Signal;HPM_P1;HPM_P2
2024/03/15 00:02:15;;;;;;;30.33;24.45;;;;;;;11.57;79.38;97771.25;4994707;28;20073;-75
2024/03/15 00:04:43;;;;;;;34.17;24.83;;;;;;;11.50;79.12;97753.69;5013167;28;20044;-75
2024/03/15 00:07:08;;;;;;;34.35;25.58;;;;;;;11.52;79.15;97767.69;5014306;28;20537;-75
2024/03/15 00:09:34;;;;;;;28.95;23.63;;;;;;;11.45;79.31;97767.13;5001782;28;20034;-74
2024/03/15 00:12:03;;;;;;;29.63;22.60;;;;;;;11.38;79.52;97763.84;5000749;28;20057;-74
2024/03/15 00:14:28;;;;;;;30.42;23.10;;;;;;;11.52;79.25;97778.50;5001989;28;20089;-75
2024/03/15 00:16:54;;;;;;;29.00;22.75;;;;;;;11.48;79.53;97772.78;4995003;28;20405;-74
2024/03/15 00:19:20;;;;;;;29.23;22.92;;;;;;;11.49;79.46;97773.59;5000482;28;20038;-75
2024/03/15 00:21:46;;;;;;;27.83;22.80;;;;;;;11.41;79.22;97766.81;4983122;28;20393;-75
2024/03/15 00:24:13;;;;;;;27.17;21.83;;;;;;;11.36;79.57;97774.06;4981759;28;20037;-75
2024/03/15 00:26:39;;;;;;;27.30;21.77;;;;;;;11.43;79.59;97775.47;4998516;28;20072;-75
2024/03/15 00:29:04;;;;;;;27.35;22.65;;;;;;;11.45;79.38;97775.22;5025264;28;20069;-75
2024/03/15 00:31:31;;;;;;;28.75;22.08;;;;;;;11.45;79.49;97772.50;5008638;28;20076;-74
2024/03/15 00:33:57;;;;;;;27.95;22.52;;;;;;;11.13;79.79;97728.63;4990155;28;20083;-75
2024/03/15 00:36:23;;;;;;;29.77;23.63;;;;;;;11.37;79.98;97775.69;5009387;28;20397;-74
2024/03/15 00:38:49;;;;;;;27.75;21.38;;;;;;;11.34;79.33;97765.44;5026239;28;20034;-74
2024/03/15 00:41:15;;;;;;;29.02;23.05;;;;;;;11.24;79.87;97754.56;4979627;28;20033;-76
2024/03/15 00:43:41;;;;;;;32.28;23.55;;;;;;;11.22;79.50;97757.53;4996073;28;20038;-76
2024/03/15 00:46:06;;;;;;;30.88;24.25;;;;;;;11.30;79.53;97775.09;5017659;28;20037;-76
2024/03/15 00:48:32;;;;;;;30.13;22.70;;;;;;;11.13;80.04;97747.50;4998540;28;20042;-76
2024/03/15 00:50:57;;;;;;;29.70;23.45;;;;;;;11.11;80.01;97743.16;5003207;28;20026;-76
2024/03/15 00:53:22;;;;;;;30.08;23.58;;;;;;;11.22;79.53;97762.94;5025946;28;20029;-76
2024/03/15 00:55:48;;;;;;;29.77;23.27;;;;;;;11.13;79.57;97751.81;4997951;28;20531;-76
2024/03/15 00:58:14;;;;;;;28.85;23.05;;;;;;;11.03;79.66;97740.97;5019048;28;20037;-76
2024/03/15 01:00:39;;;;;;;27.70;22.02;;;;;;;11.10;79.96;97756.91;4998130;28;20474;-75
2024/03/15 01:03:05;;;;;;;29.70;23.58;;;;;;;10.99;80.63;97742.53;5013895;28;20037;-76
2024/03/15 01:05:31;;;;;;;29.02;23.65;;;;;;;11.13;80.40;97759.88;5014720;28;20493;-75
2024/03/15 01:07:56;;;;;;;28.13;21.85;;;;;;;11.05;80.42;97755.00;5014733;28;20524;-75
2024/03/15 01:10:21;;;;;;;30.92;23.42;;;;;;;10.87;80.55;97717.69;4995638;28;20030;-77
2024/03/15 01:12:47;;;;;;;29.13;23.30;;;;;;;11.03;80.71;97754.44;5014049;28;20065;-76
2024/03/15 01:15:12;;;;;;;31.33;24.10;;;;;;;10.97;80.76;97739.28;5013708;28;20040;-76
2024/03/15 01:17:38;;;;;;;29.05;22.60;;;;;;;10.99;81.37;97752.53;5014222;28;20042;-76
2024/03/15 01:20:05;;;;;;;28.20;23.63;;;;;;;10.95;81.02;97744.13;4994357;28;20022;-75
2024/03/15 01:22:32;;;;;;;29.98;22.63;;;;;;;10.98;80.71;97745.50;5011290;28;20125;-76
2024/03/15 01:24:58;;;;;;;29.65;22.45;;;;;;;11.04;81.19;97750.66;5005593;28;20033;-76
2024/03/15 01:27:24;;;;;;;30.05;22.85;;;;;;;10.87;80.82;97722.25;5014188;28;20038;-76
2024/03/15 01:29:50;;;;;;;30.52;23.48;;;;;;;10.93;81.34;97732.81;5003010;28;20036;-76
2024/03/15 01:32:15;;;;;;;27.83;21.67;;;;;;;11.00;81.08;97749.56;5003913;28;20405;-75
2024/03/15 01:34:40;;;;;;;30.58;23.88;;;;;;;11.07;81.03;97738.56;5013201;28;20045;-76
2024/03/15 01:37:06;;;;;;;27.02;22.63;;;;;;;11.04;81.09;97744.44;5013666;28;20037;-75
2024/03/15 01:39:31;;;;;;;28.95;22.90;;;;;;;10.96;81.16;97720.69;5005636;28;20030;-75
2024/03/15 01:41:56;;;;;;;28.40;23.10;;;;;;;10.96;81.28;97732.28;4997075;28;20037;-75
2024/03/15 01:44:22;;;;;;;27.33;22.40;;;;;;;10.97;81.47;97733.91;4997763;28;20026;-75
2024/03/15 01:46:47;;;;;;;29.60;22.67;;;;;;;11.03;81.95;97743.66;5000782;28;20049;-76
2024/03/15 01:49:13;;;;;;;30.38;23.25;;;;;;;11.04;81.21;97742.56;5013721;28;20044;-75
2024/03/15 01:51:38;;;;;;;30.23;22.35;;;;;;;11.03;81.65;97732.88;5033715;28;20045;-75
2024/03/15 01:54:03;;;;;;;28.63;22.08;;;;;;;10.98;81.86;97726.63;4996625;28;20064;-75
2024/03/15 01:56:29;;;;;;;31.63;24.17;;;;;;;10.89;82.00;97712.03;5013599;28;20037;-74
2024/03/15 01:58:54;;;;;;;27.88;23.30;;;;;;;10.90;81.80;97722.53;5017098;28;20112;-74
2024/03/15 02:01:20;;;;;;;30.35;24.02;;;;;;;10.96;81.91;97726.91;5016795;28;20030;-77
2024/03/15 02:03:46;;;;;;;28.30;22.63;;;;;;;11.03;82.11;97732.88;4990215;28;20523;-76
2024/03/15 02:06:14;;;;;;;28.77;22.27;;;;;;;11.04;81.63;97733.69;5034444;28;20039;-76
2024/03/15 02:08:40;;;;;;;29.70;23.30;;;;;;;10.92;81.84;97715.00;5016694;28;20040;-76
2024/03/15 02:11:05;;;;;;;30.48;22.77;;;;;;;11.02;81.43;97725.84;5016777;28;20469;-76
2024/03/15 02:13:30;;;;;;;29.73;22.92;;;;;;;10.84;81.96;97696.63;4998566;28;20018;-76
2024/03/15 02:15:56;;;;;;;28.48;23.20;;;;;;;10.53;81.93;97667.84;5034145;28;20083;-76
2024/03/15 02:18:21;;;;;;;31.23;23.63;;;;;;;10.94;82.14;97726.34;5020953;28;20067;-76
2024/03/15 02:20:47;;;;;;;29.35;23.85;;;;;;;10.82;81.65;97712.25;5000090;28;20033;-74
2024/03/15 02:23:12;;;;;;;27.95;23.35;;;;;;;10.84;81.42;97712.78;5033584;28;20029;-75
2024/03/15 02:25:38;;;;;;;28.65;23.30;;;;;;;10.89;81.64;97723.63;5016031;28;20108;-75
2024/03/15 02:28:06;;;;;;;26.45;22.13;;;;;;;10.79;81.64;97709.25;5020173;28;20052;-75
2024/03/15 02:30:31;;;;;;;28.77;22.65;;;;;;;10.86;81.78;97716.03;5017930;28;20427;-75
2024/03/15 02:32:58;;;;;;;27.52;22.15;;;;;;;10.83;81.59;97716.53;5041619;28;20092;-75
2024/03/15 02:35:24;;;;;;;28.67;22.33;;;;;;;10.84;81.47;97718.19;5000493;28;20066;-74
2024/03/15 02:37:50;;;;;;;27.27;22.35;;;;;;;10.75;81.53;97703.56;4999365;28;20108;-75
2024/03/15 02:40:15;;;;;;;29.00;22.55;;;;;;;10.85;81.85;97722.47;4999463;28;20125;-75
2024/03/15 02:42:42;;;;;;;28.55;22.05;;;;;;;10.78;81.80;97715.72;5037874;28;20037;-74
2024/03/15 02:45:08;;;;;;;25.33;21.63;;;;;;;10.65;81.36;97708.88;5003137;28;20034;-75
2024/03/15 02:47:36;;;;;;;27.17;21.70;;;;;;;10.58;81.67;97702.88;5022047;28;20492;-74
2024/03/15 02:50:02;;;;;;;28.67;21.98;;;;;;;10.62;81.99;97720.13;5025860;28;20400;-75
2024/03/15 02:52:28;;;;;;;27.40;22.38;;;;;;;10.70;81.60;97710.78;5020048;28;20525;-76
2024/03/15 02:54:56;;;;;;;24.77;21.35;;;;;;;10.70;81.96;97725.06;5004058;28;20041;-75
2024/03/15 02:57:21;;;;;;;28.05;22.95;;;;;;;10.61;81.71;97715.84;5019556;28;20065;-75
2024/03/15 02:59:47;;;;;;;28.13;22.92;;;;;;;10.63;82.51;97715.56;5033385;28;20064;-75
2024/03/15 03:02:14;;;;;;;27.73;22.02;;;;;;;10.64;82.00;97718.00;5028435;28;20032;-74
2024/03/15 03:04:41;;;;;;;28.90;22.70;;;;;;;10.65;82.47;97719.63;5043599;28;20523;-75
2024/03/15 03:07:06;;;;;;;27.98;22.65;;;;;;;10.66;82.21;97721.28;5021482;28;20044;-77
2024/03/15 03:09:31;;;;;;;26.25;21.67;;;;;;;10.64;82.72;97719.91;5014149;28;20100;-74
2024/03/15 03:11:57;;;;;;;26.95;22.35;;;;;;;10.53;82.41;97716.28;4994144;28;20436;-74
2024/03/15 03:14:23;;;;;;;30.13;23.63;;;;;;;10.58;82.41;97724.41;5028505;28;20116;-76
2024/03/15 03:16:49;;;;;;;28.02;22.85;;;;;;;10.43;81.75;97705.44;4998838;28;20539;-74
2024/03/15 03:19:17;;;;;;;28.35;22.40;;;;;;;10.59;81.77;97726.06;4998796;28;20041;-74
2024/03/15 03:21:45;;;;;;;25.85;21.80;;;;;;;10.49;82.34;97714.38;5014369;28;20025;-76
2024/03/15 03:24:11;;;;;;;24.08;20.95;;;;;;;10.41;82.43;97713.75;4994167;28;20172;-76
2024/03/15 03:26:36;;;;;;;25.92;21.60;;;;;;;10.40;82.13;97714.84;4998533;28;20071;-75
2024/03/15 03:29:02;;;;;;;25.38;21.52;;;;;;;10.31;82.08;97718.25;4982520;28;20488;-75
2024/03/15 03:31:27;;;;;;;27.48;22.13;;;;;;;10.40;81.92;97728.31;5013458;28;20037;-74
2024/03/15 03:33:52;;;;;;;24.05;21.05;;;;;;;10.38;82.38;97735.00;5014751;28;20544;-75
2024/03/15 03:36:18;;;;;;;27.77;22.05;;;;;;;10.29;81.98;97723.06;4995627;28;20100;-75
2024/03/15 03:38:44;;;;;;;24.70;21.58;;;;;;;10.25;81.89;97719.25;5023152;28;20037;-74
2024/03/15 03:41:09;;;;;;;23.02;20.23;;;;;;;10.38;82.14;97740.41;5015423;28;20026;-74
2024/03/15 03:43:35;;;;;;;25.65;21.65;;;;;;;10.42;82.80;97749.56;4994921;28;20065;-74
2024/03/15 03:46:00;;;;;;;25.30;21.25;;;;;;;10.44;82.56;97750.13;5007586;28;20036;-75
2024/03/15 03:48:26;;;;;;;24.55;20.40;;;;;;;10.45;82.57;97741.00;5029253;28;20053;-74
2024/03/15 03:50:52;;;;;;;28.17;21.05;;;;;;;10.40;82.42;97722.09;5022900;28;20026;-75
2024/03/15 03:53:17;;;;;;;24.50;21.05;;;;;;;10.45;82.67;97734.78;4988810;28;20132;-75
2024/03/15 03:55:43;;;;;;;25.60;21.27;;;;;;;10.42;83.00;97719.97;5015108;28;20370;-75
2024/03/15 03:58:12;;;;;;;23.35;20.73;;;;;;;10.43;82.88;97732.38;5001660;28;20039;-74
2024/03/15 04:00:38;;;;;;;26.02;21.40;;;;;;;10.46;82.88;97726.47;5015462;28;20112;-75
2024/03/15 04:03:03;;;;;;;23.98;21.15;;;;;;;10.34;83.09;97717.72;5021116;28;20220;-76
2024/03/15 04:05:29;;;;;;;22.45;19.75;;;;;;;10.54;82.97;97733.25;5000746;28;20046;-75
2024/03/15 04:07:55;;;;;;;22.98;20.45;;;;;;;10.50;82.71;97727.59;4999072;28;20120;-76
2024/03/15 04:10:20;;;;;;;24.35;20.15;;;;;;;10.59;83.41;97754.84;5019968;28;20029;-75
2024/03/15 04:12:46;;;;;;;23.27;20.48;;;;;;;10.51;82.69;97729.19;4999150;28;20030;-75
2024/03/15 04:15:12;;;;;;;26.05;21.88;;;;;;;10.64;82.42;97750.31;4998779;28;20025;-75
2024/03/15 04:17:38;;;;;;;25.20;21.40;;;;;;;10.56;82.63;97736.50;5015419;28;20096;-75
2024/03/15 04:20:07;;;;;;;25.73;20.95;;;;;;;10.62;82.88;97748.97;5012090;28;20038;-74
2024/03/15 04:22:32;;;;;;;26.02;21.60;;;;;;;10.55;83.50;97751.84;5022249;28;20076;-74
2024/03/15 04:24:59;;;;;;;24.13;20.60;;;;;;;10.48;82.92;97735.09;4998712;28;20037;-75
2024/03/15 04:27:25;;;;;;;25.90;21.35;;;;;;;10.60;82.84;97746.50;4999215;28;20072;-75
2024/03/15 04:29:51;;;;;;;26.17;21.98;;;;;;;10.46;83.35;97734.53;4998444;28;20126;-74
2024/03/15 04:32:19;;;;;;;25.67;21.25;;;;;;;10.55;82.74;97743.78;5014767;28;20425;-74
2024/03/15 04:34:47;;;;;;;25.90;22.45;;;;;;;10.50;83.01;97741.06;4998204;28;20022;-75
2024/03/15 04:37:15;;;;;;;28.33;21.77;;;;;;;10.59;82.93;97761.06;4998357;28;20489;-75
2024/03/15 04:39:43;;;;;;;27.30;22.38;;;;;;;10.49;83.04;97735.91;4997882;28;20121;-75
2024/03/15 04:42:09;;;;;;;24.17;20.88;;;;;;;10.55;83.13;97768.00;5014324;28;20073;-75
2024/03/15 04:44:37;;;;;;;23.70;20.67;;;;;;;10.37;83.30;97757.59;5043614;28;20120;-75
2024/03/15 04:47:09;;;;;;;26.27;21.45;;;;;;;10.51;82.87;97756.13;5014795;28;20119;-75
2024/03/15 04:49:34;;;;;;;24.45;21.75;;;;;;;10.48;82.62;97762.00;4997576;28;20064;-76
2024/03/15 04:52:00;;;;;;;25.05;21.42;;;;;;;10.29;82.54;97736.53;5013687;28;20022;-76
2024/03/15 04:54:26;;;;;;;24.75;21.35;;;;;;;10.35;82.38;97741.72;5013333;28;20400;-76
2024/03/15 04:56:52;;;;;;;26.63;21.83;;;;;;;10.46;82.78;97758.75;5013421;28;20026;-75
2024/03/15 04:59:17;;;;;;;24.98;21.35;;;;;;;10.33;82.83;97737.66;5013617;28;20072;-76
2024/03/15 05:01:42;;;;;;;24.08;20.63;;;;;;;10.37;82.77;97749.53;5015345;28;20026;-75
2024/03/15 05:04:08;;;;;;;22.45;20.10;;;;;;;10.29;82.66;97731.94;5009933;28;20046;-76
2024/03/15 05:06:34;;;;;;;24.67;20.73;;;;;;;10.22;82.75;97719.78;5011470;28;20125;-76
2024/03/15 05:09:00;;;;;;;24.08;21.48;;;;;;;10.32;82.97;97742.22;4989962;28;20048;-76
2024/03/15 05:11:26;;;;;;;24.58;21.45;;;;;;;10.34;83.02;97752.72;5037929;28;20033;-76
2024/03/15 05:13:51;;;;;;;25.83;21.65;;;;;;;10.25;83.43;97738.09;5024849;28;20034;-76
2024/03/15 05:16:17;;;;;;;24.20;21.05;;;;;;;10.20;82.97;97732.66;5016895;28;20030;-76
2024/03/15 05:18:42;;;;;;;24.48;20.65;;;;;;;10.11;82.99;97728.75;5000443;28;20570;-76
2024/03/15 05:21:09;;;;;;;24.50;21.05;;;;;;;10.15;83.51;97748.75;5014551;28;20025;-76
2024/03/15 05:23:34;;;;;;;28.45;25.30;;;;;;;9.92;82.79;97733.66;4995690;28;20069;-76
2024/03/15 05:26:00;;;;;;;22.90;20.48;;;;;;;9.94;83.43;97734.22;5024813;28;20053;-76
2024/03/15 05:28:27;;;;;;;26.40;20.13;;;;;;;9.82;83.03;97721.97;5021655;28;20053;-76
2024/03/15 05:30:53;;;;;;;23.98;20.02;;;;;;;9.96;82.06;97731.28;5002229;28;20026;-76
2024/03/15 05:33:18;;;;;;;22.52;20.20;;;;;;;9.99;82.40;97746.94;4993288;28;20049;-76
2024/03/15 05:35:44;;;;;;;22.45;19.17;;;;;;;9.96;82.93;97736.66;5012648;28;20075;-75
2024/03/15 05:38:09;;;;;;;26.23;20.40;;;;;;;10.08;82.79;97740.03;5004240;28;20121;-75
2024/03/15 05:40:35;;;;;;;23.90;20.25;;;;;;;10.16;83.07;97758.44;5034219;28;20021;-75
2024/03/15 05:43:01;;;;;;;24.50;20.73;;;;;;;10.00;83.16;97732.41;5022134;28;20053;-76
2024/03/15 05:45:26;;;;;;;23.05;19.13;;;;;;;10.06;83.39;97747.56;5084555;22;20384;-77
2024/03/15 05:47:51;;;;;;;22.58;19.88;;;;;;;9.99;83.31;97755.00;5053205;28;20045;-76
2024/03/15 05:50:17;;;;;;;22.45;19.33;;;;;;;9.98;83.43;97753.38;5036701;28;20044;-76
2024/03/15 05:52:42;;;;;;;22.13;19.90;;;;;;;9.88;83.28;97729.03;5032773;28;20149;-76
2024/03/15 05:55:08;;;;;;;23.17;19.85;;;;;;;10.00;83.19;97754.75;5062714;28;20052;-76
2024/03/15 05:57:34;;;;;;;20.80;18.60;;;;;;;9.97;83.84;97751.72;5039325;28;20052;-77
2024/03/15 06:00:09;;;;;;;22.98;19.90;;;;;;;10.26;83.50;97774.72;5039336;28;20475;-75
2024/03/15 06:02:38;;;;;;;22.73;20.05;;;;;;;10.24;84.13;97771.47;5041670;28;20062;-77
2024/03/15 06:05:04;;;;;;;22.45;20.10;;;;;;;10.20;83.71;97770.31;5037834;28;20027;-77
2024/03/15 06:07:30;;;;;;;22.33;20.02;;;;;;;10.27;83.60;97757.47;5021064;28;20572;-76
2024/03/15 06:09:56;;;;;;;19.65;17.52;;;;;;;10.19;83.52;97744.50;5054700;28;20119;-75
2024/03/15 06:12:27;;;;;;;21.00;18.10;;;;;;;10.30;83.21;97759.69;5022381;28;20173;-76
2024/03/15 06:14:55;;;;;;;21.60;19.30;;;;;;;10.32;83.34;97763.75;5039190;28;20089;-76
2024/03/15 06:17:21;;;;;;;23.05;17.80;;;;;;;10.21;83.72;97747.75;5021486;28;20035;-76
2024/03/15 06:19:46;;;;;;;19.33;17.27;;;;;;;10.38;83.75;97762.72;5055751;28;20036;-76
2024/03/15 06:22:13;;;;;;;21.10;17.55;;;;;;;10.40;83.00;97749.84;5022180;28;20043;-76
2024/03/15 06:24:39;;;;;;;19.75;16.65;;;;;;;10.40;83.04;97749.03;5022029;28;20545;-76
2024/03/15 06:27:06;;;;;;;18.60;16.45;;;;;;;10.59;83.02;97774.53;5022143;28;20020;-76
2024/03/15 06:29:33;;;;;;;17.65;15.82;;;;;;;10.47;82.49;97743.44;5022449;28;20051;-76
2024/03/15 06:31:59;;;;;;;19.73;16.88;;;;;;;10.67;82.74;97765.97;5038729;28;20498;-76
2024/03/15 06:34:27;;;;;;;16.92;15.10;;;;;;;10.76;82.35;97775.22;5037930;28;20040;-76
2024/03/15 06:36:54;;;;;;;17.63;15.18;;;;;;;10.70;82.56;97772.72;5038886;28;20050;-75
2024/03/15 06:39:40;;;;;;;17.30;14.80;;;;;;;10.74;82.51;97766.56;5055274;28;20483;-76
2024/03/15 06:42:21;;;;;;;17.08;15.23;;;;;;;10.71;82.61;97761.69;5024234;28;20135;-76
2024/03/15 06:44:50;;;;;;;36.92;27.67;;;;;;;10.95;81.61;97783.72;5028785;28;20032;-76
2024/03/15 06:47:16;;;;;;;16.50;14.70;;;;;;;10.81;82.14;97761.78;5027794;28;20024;-76
2024/03/15 06:49:47;;;;;;;65.60;48.10;;;;;;;10.91;82.17;97783.44;5038129;28;20066;-76
2024/03/15 06:52:34;;;;;;;42.67;34.15;;;;;;;11.04;81.92;97783.00;5030903;28;20182;-76
2024/03/15 06:55:18;;;;;;;19.55;15.82;;;;;;;11.07;81.68;97787.88;5034258;28;20051;-75
2024/03/15 06:57:44;;;;;;;39.70;30.88;;;;;;;11.17;81.08;97778.25;5054534;28;20044;-76
2024/03/15 07:00:10;;;;;;;22.48;18.75;;;;;;;11.25;81.54;97783.16;5049085;28;20050;-78
2024/03/15 07:02:41;;;;;;;14.93;13.43;;;;;;;11.14;81.11;97763.41;5038766;28;20037;-77
2024/03/15 07:05:07;;;;;;;14.05;12.07;;;;;;;11.25;80.38;97772.38;5021494;28;20075;-77
2024/03/15 07:07:36;;;;;;;13.63;11.90;;;;;;;11.38;80.71;97788.91;5037665;28;20024;-77
2024/03/15 07:10:05;;;;;;;14.55;12.52;;;;;;;11.27;80.30;97770.25;5030232;28;20040;-77
2024/03/15 07:12:30;;;;;;;14.18;12.20;;;;;;;11.49;80.00;97789.78;5037642;28;20017;-77
2024/03/15 07:14:56;;;;;;;13.52;11.95;;;;;;;11.51;79.72;97791.16;5051172;28;20043;-77
2024/03/15 07:17:22;;;;;;;13.25;11.85;;;;;;;11.54;79.57;97787.13;5037664;28;20051;-77
2024/03/15 07:19:49;;;;;;;13.23;11.82;;;;;;;11.64;79.32;97798.00;5038231;28;20066;-77
2024/03/15 07:22:15;;;;;;;13.00;11.60;;;;;;;11.54;79.38;97779.84;5036415;28;20021;-77
2024/03/15 07:24:42;;;;;;;14.18;10.70;;;;;;;11.65;79.08;97791.50;5023381;28;20032;-76
2024/03/15 07:27:07;;;;;;;18.98;11.60;;;;;;;11.73;78.45;97797.28;5036523;28;20066;-76
2024/03/15 07:29:33;;;;;;;12.45;10.75;;;;;;;11.82;78.66;97819.16;5025700;28;20032;-77
2024/03/15 07:32:01;;;;;;;14.13;11.05;;;;;;;11.83;77.98;97812.72;5036382;28;20028;-77
2024/03/15 07:34:27;;;;;;;12.40;11.05;;;;;;;11.79;78.45;97795.41;5036721;28;20043;-77
2024/03/15 07:36:56;;;;;;;14.52;12.68;;;;;;;11.89;78.50;97814.34;5037450;28;20403;-77
2024/03/15 07:39:23;;;;;;;13.50;11.95;;;;;;;11.83;77.96;97795.69;5021247;28;20044;-77
2024/03/15 07:41:49;;;;;;;16.13;13.27;;;;;;;11.89;78.23;97803.56;5037273;28;20021;-77
2024/03/15 07:44:15;;;;;;;13.90;11.90;;;;;;;12.07;77.87;97813.88;5036957;28;20041;-77
2024/03/15 07:46:42;;;;;;;13.95;10.93;;;;;;;11.98;77.87;97798.47;5036189;28;20047;-77
2024/03/15 07:49:08;;;;;;;12.00;10.05;;;;;;;12.04;77.50;97800.91;5020893;28;20036;-77
2024/03/15 07:51:35;;;;;;;10.93;9.82;;;;;;;12.10;76.81;97791.78;5037371;28;20025;-77
2024/03/15 07:54:00;;;;;;;12.07;10.73;;;;;;;12.13;76.41;97785.84;5053628;28;20028;-76
2024/03/15 07:56:26;;;;;;;11.07;9.85;;;;;;;12.01;77.09;97781.75;5034829;28;20025;-76
2024/03/15 07:58:52;;;;;;;13.30;10.07;;;;;;;12.11;76.62;97793.38;5053899;28;20052;-76
2024/03/15 08:01:19;;;;;;;12.90;10.40;;;;;;;12.35;76.32;97805.38;5047934;28;20036;-76
2024/03/15 08:03:45;;;;;;;11.77;10.20;;;;;;;12.37;76.35;97791.59;5026479;28;20081;-76
2024/03/15 08:06:10;;;;;;;12.55;10.43;;;;;;;12.31;76.31;97777.28;5046461;28;20032;-77
2024/03/15 08:08:36;;;;;;;10.77;9.68;;;;;;;12.49;75.66;97795.69;5020109;28;20037;-77
2024/03/15 08:11:01;;;;;;;11.57;9.23;;;;;;;12.63;75.78;97801.38;5036913;28;20032;-77
2024/03/15 08:13:27;;;;;;;12.10;9.57;;;;;;;12.74;75.13;97813.81;5036512;28;20547;-77
2024/03/15 08:15:59;;;;;;;11.23;9.57;;;;;;;12.80;74.98;97803.84;5026329;28;20516;-77
2024/03/15 08:18:28;;;;;;;9.60;8.70;;;;;;;12.93;75.21;97816.84;5037170;28;20047;-76
2024/03/15 08:20:53;;;;;;;10.18;8.52;;;;;;;12.97;74.27;97801.72;5020416;28;20115;-77
2024/03/15 08:23:19;;;;;;;9.32;8.13;;;;;;;13.13;73.89;97814.19;5036428;28;20171;-76
2024/03/15 08:25:44;;;;;;;9.00;7.28;;;;;;;13.13;73.50;97812.31;5024687;28;20075;-78
2024/03/15 08:28:13;;;;;;;8.98;8.07;;;;;;;13.21;72.72;97808.22;5036393;28;20104;-80
2024/03/15 08:30:39;;;;;;;9.43;7.90;;;;;;;13.37;73.04;97819.88;5038011;28;20039;-75
2024/03/15 08:33:06;;;;;;;7.60;6.80;;;;;;;13.33;72.34;97806.06;5036288;28;20024;-75
2024/03/15 08:35:31;;;;;;;9.18;7.10;;;;;;;13.38;71.82;97814.19;5053380;28;20476;-76
2024/03/15 08:37:58;;;;;;;9.05;7.03;;;;;;;13.40;70.88;97816.59;5023652;28;20091;-76
2024/03/15 08:40:25;;;;;;;7.63;6.70;;;;;;;13.48;70.62;97822.31;5036080;28;20107;-77
2024/03/15 08:42:50;;;;;;;8.98;7.32;;;;;;;13.45;70.88;97817.44;5057048;28;20056;-77
2024/03/15 08:45:16;;;;;;;9.68;7.65;;;;;;;13.29;71.15;97787.97;5023370;28;20052;-76
2024/03/15 08:47:41;;;;;;;7.85;7.03;;;;;;;13.30;71.34;97790.41;5040281;28;20044;-76
2024/03/15 08:50:11;;;;;;;9.35;8.05;;;;;;;13.50;71.49;97811.19;5023825;28;20064;-76
2024/03/15 08:52:42;;;;;;;10.57;7.68;;;;;;;13.57;70.92;97817.97;5026180;28;20029;-77
2024/03/15 08:55:09;;;;;;;7.82;7.03;;;;;;;13.61;70.10;97805.50;5057090;28;20079;-76
2024/03/15 08:57:34;;;;;;;8.13;7.25;;;;;;;13.79;70.72;97821.16;5040328;28;20028;-77
2024/03/15 09:00:00;;;;;;;9.07;7.35;;;;;;;13.81;70.02;97819.00;5039946;28;20040;-77
2024/03/15 09:02:26;;;;;;;8.85;7.00;;;;;;;13.72;69.64;97796.28;5039816;28;20407;-77
2024/03/15 09:04:52;;;;;;;7.28;6.45;;;;;;;13.99;69.34;97824.91;5056856;28;20046;-76
2024/03/15 09:07:18;;;;;;;7.53;6.65;;;;;;;13.75;69.09;97763.25;5036427;28;20419;-77
2024/03/15 09:09:44;;;;;;;9.25;6.88;;;;;;;14.10;68.91;97810.25;5038034;28;20075;-77
2024/03/15 09:12:09;;;;;;;9.25;6.57;;;;;;;14.21;69.43;97823.47;5040176;28;20044;-77
2024/03/15 09:14:35;;;;;;;8.10;5.95;;;;;;;14.17;68.95;97802.63;5039396;28;20033;-76
2024/03/15 09:17:08;;;;;;;7.63;6.25;;;;;;;14.35;68.82;97799.34;5049270;28;20029;-75
2024/03/15 09:19:33;;;;;;;8.82;5.70;;;;;;;14.49;68.01;97809.28;5078126;28;20055;-75
2024/03/15 09:21:59;;;;;;;6.70;5.93;;;;;;;14.53;68.15;97801.44;5059824;28;20032;-76
2024/03/15 09:24:26;;;;;;;7.85;5.57;;;;;;;14.64;67.71;97811.13;5038382;28;20415;-76
2024/03/15 09:26:52;;;;;;;8.02;6.00;;;;;;;14.69;68.07;97792.13;5057162;28;20028;-75
2024/03/15 09:29:19;;;;;;;7.43;5.90;;;;;;;14.70;67.18;97810.03;5037764;28;20118;-75
2024/03/15 09:31:51;;;;;;;7.43;5.95;;;;;;;14.88;67.53;97801.22;5031891;28;20025;-76
2024/03/15 09:34:16;;;;;;;6.57;5.93;;;;;;;14.92;67.36;97796.84;5023188;28;20430;-76
2024/03/15 09:36:41;;;;;;;9.02;6.18;;;;;;;15.11;66.37;97795.09;5034180;28;20047;-76
2024/03/15 09:39:09;;;;;;;9.93;6.32;;;;;;;15.12;66.27;97799.41;5039481;28;20036;-76
2024/03/15 09:41:35;;;;;;;7.32;6.03;;;;;;;15.21;65.75;97786.88;5039712;28;20031;-77
2024/03/15 09:44:01;;;;;;;7.72;6.13;;;;;;;15.29;66.01;97795.47;5055279;28;20487;-77
2024/03/15 09:46:28;;;;;;;6.97;5.50;;;;;;;15.40;65.61;97786.16;5037211;28;20079;-76
2024/03/15 09:48:56;;;;;;;7.43;5.93;;;;;;;15.36;65.76;97791.34;5038072;28;20479;-76
2024/03/15 09:51:22;;;;;;;8.20;5.50;;;;;;;15.51;66.10;97793.16;5022012;28;20395;-76
2024/03/15 09:53:47;;;;;;;7.03;5.60;;;;;;;15.64;65.75;97792.47;5038602;28;20036;-76
2024/03/15 09:56:18;;;;;;;7.70;5.28;;;;;;;15.46;65.09;97763.34;5038533;28;20024;-76
2024/03/15 09:58:52;;;;;;;7.60;5.22;;;;;;;15.68;65.58;97777.25;5050073;28;20037;-76
2024/03/15 10:01:18;;;;;;;7.82;5.28;;;;;;;15.86;64.82;97790.09;5039166;28;20041;-77
2024/03/15 10:03:44;;;;;;;5.75;5.07;;;;;;;15.71;64.68;97776.66;5038154;28;20036;-77
2024/03/15 10:06:12;;;;;;;7.20;5.22;;;;;;;15.95;63.75;97782.09;5039432;28;20442;-76
2024/03/15 10:08:38;;;;;;;5.55;5.05;;;;;;;15.96;64.62;97779.13;5038542;28;20047;-76
2024/03/15 10:11:03;;;;;;;7.72;5.18;;;;;;;15.93;64.25;97752.53;5022126;28;20115;-76
2024/03/15 10:13:31;;;;;;;7.55;5.10;;;;;;;16.10;63.23;97769.16;5031225;28;20472;-75
2024/03/15 10:16:00;;;;;;;6.13;4.72;;;;;;;16.22;63.68;97772.25;5026677;28;20032;-76
2024/03/15 10:18:26;;;;;;;8.55;4.90;;;;;;;16.34;64.37;97769.94;5037891;28;20031;-77
2024/03/15 10:20:55;;;;;;;6.47;4.65;;;;;;;16.41;63.32;97758.69;5035038;28;20040;-76
2024/03/15 10:23:20;;;;;;;7.47;4.95;;;;;;;16.64;63.02;97785.06;5019654;28;20028;-77
2024/03/15 10:25:49;;;;;;;6.13;4.25;;;;;;;16.68;63.09;97768.97;5035139;28;20434;-76
2024/03/15 10:28:19;;;;;;;4.35;3.55;;;;;;;16.77;62.35;97786.25;5036801;28;20032;-76
2024/03/15 10:30:45;;;;;;;5.30;4.05;;;;;;;16.88;60.91;97780.34;5047631;28;20037;-77
2024/03/15 10:33:11;;;;;;;6.32;3.75;;;;;;;16.85;60.66;97780.16;5037838;28;20016;-77
2024/03/15 10:35:38;;;;;;;4.75;3.72;;;;;;;16.88;59.98;97784.97;5029999;28;20052;-76
2024/03/15 10:38:04;;;;;;;2.78;2.47;;;;;;;16.95;58.76;97785.41;5054876;28;20025;-76
2024/03/15 10:40:32;;;;;;;4.85;2.47;;;;;;;16.79;59.58;97793.00;5037923;28;20085;-77
2024/03/15 10:43:00;;;;;;;4.15;2.40;;;;;;;16.78;60.00;97782.44;5033016;28;20070;-76
2024/03/15 10:45:26;;;;;;;3.40;2.50;;;;;;;16.89;59.10;97798.31;5035575;28;20036;-77
2024/03/15 10:47:55;;;;;;;3.40;2.40;;;;;;;16.82;58.72;97794.34;5038141;28;20028;-76
2024/03/15 10:50:23;;;;;;;4.65;2.60;;;;;;;16.75;59.52;97802.03;5026559;28;20067;-77
2024/03/15 10:52:50;;;;;;;3.75;2.55;;;;;;;16.68;59.93;97802.41;5018360;28;20044;-77
2024/03/15 10:55:22;;;;;;;3.15;2.28;;;;;;;16.70;60.27;97821.16;5020940;28;20493;-76
2024/03/15 10:57:51;;;;;;;4.85;2.40;;;;;;;16.81;60.04;97789.97;5034875;28;20058;-77
2024/03/15 11:00:19;;;;;;;6.88;2.75;;;;;;;16.62;60.07;97797.34;5029151;28;20074;-77
2024/03/15 11:02:45;;;;;;;3.00;2.28;;;;;;;16.72;60.16;97818.94;5037297;28;20428;-77
2024/03/15 11:05:16;;;;;;;3.85;2.20;;;;;;;16.71;60.88;97809.19;5037305;28;20032;-77
2024/03/15 11:07:41;;;;;;;3.15;1.80;;;;;;;16.78;59.78;97806.91;5037940;28;20047;-77
2024/03/15 11:10:09;;;;;;;3.10;2.10;;;;;;;16.53;59.68;97817.03;5035654;28;20024;-77
2024/03/15 11:12:39;;;;;;;2.63;2.00;;;;;;;16.50;60.29;97808.59;5037015;28;20029;-76
2024/03/15 11:15:12;;;;;;;2.70;2.10;;;;;;;16.66;60.93;97806.53;5037476;28;20538;-77
2024/03/15 11:17:38;;;;;;;2.22;1.95;;;;;;;16.76;60.50;97809.09;5037691;28;20040;-77
2024/03/15 11:20:09;;;;;;;4.78;1.95;;;;;;;16.73;61.20;97815.13;5037387;28;20383;-77